createdAt,value
2018-07-05T00:01:23.441Z,4.97
2018-07-05T00:04:03.024Z,5.67
2018-07-05T00:06:42.564Z,5.30
2018-07-05T00:09:22.157Z,4.47
2018-07-05T00:12:01.766Z,5.40
2018-07-05T00:14:41.343Z,6.30
2018-07-05T00:17:20.934Z,5.53
2018-07-05T00:20:00.541Z,5.80
2018-07-05T00:22:40.264Z,5.67
2018-07-05T00:25:19.777Z,8.10
2018-07-05T00:27:59.572Z,5.00
2018-07-05T00:30:39.166Z,5.70
2018-07-05T00:33:18.813Z,5.00
2018-07-05T00:35:58.392Z,4.80
2018-07-05T00:38:37.957Z,5.47
2018-07-05T00:41:11.537Z,6.57
2018-07-05T00:43:50.905Z,4.87
2018-07-05T00:46:30.621Z,4.37
2018-07-05T00:49:10.187Z,4.80
2018-07-05T00:51:49.837Z,4.93
2018-07-05T00:54:23.336Z,4.43
2018-07-05T00:57:02.953Z,5.23
2018-07-05T00:59:42.463Z,5.10
2018-07-05T01:02:22.092Z,4.43
2018-07-05T01:05:05.668Z,4.90
2018-07-05T01:07:45.285Z,4.77
2018-07-05T01:10:24.743Z,6.10
2018-07-05T01:13:04.296Z,6.00
2018-07-05T01:15:43.829Z,7.10
2018-07-05T01:18:23.460Z,5.93
2018-07-05T01:21:03.113Z,5.23
2018-07-05T01:23:42.772Z,7.00
2018-07-05T01:26:22.274Z,5.07
2018-07-05T01:29:01.928Z,5.90
2018-07-05T01:31:41.316Z,4.77
2018-07-05T01:34:20.742Z,4.27
2018-07-05T01:36:54.416Z,4.67
2018-07-05T01:39:33.991Z,5.00
2018-07-05T01:42:13.741Z,4.73
2018-07-05T01:44:53.776Z,4.60
2018-07-05T01:47:33.403Z,5.70
2018-07-05T01:50:12.993Z,6.10
2018-07-05T01:52:52.468Z,6.23
2018-07-05T01:55:32.017Z,6.30
2018-07-05T01:58:11.591Z,7.03
2018-07-05T02:00:45.173Z,7.53
2018-07-05T02:03:24.769Z,8.20
2018-07-05T02:06:04.321Z,9.30
2018-07-05T02:08:43.901Z,9.07
2018-07-05T02:11:23.428Z,10.10
2018-07-05T02:14:02.996Z,9.23
2018-07-05T02:16:42.423Z,9.00
2018-07-05T02:19:22.024Z,9.57
2018-07-05T02:22:01.568Z,8.50
2018-07-05T02:24:41.144Z,9.53
2018-07-05T02:27:20.707Z,8.27
2018-07-05T02:30:00.313Z,8.23
2018-07-05T02:32:40.044Z,9.20
2018-07-05T02:35:19.558Z,9.57
2018-07-05T02:38:04.648Z,9.77
2018-07-05T02:40:44.292Z,9.33
2018-07-05T02:43:24.056Z,9.43
2018-07-05T02:46:03.656Z,9.57
2018-07-05T02:48:43.138Z,9.43
2018-07-05T02:51:22.800Z,9.00
2018-07-05T02:53:56.500Z,11.37
2018-07-05T02:56:36.110Z,11.20
2018-07-05T02:59:15.786Z,10.47
2018-07-05T03:01:55.445Z,11.10
2018-07-05T03:04:35.068Z,11.47
2018-07-05T03:07:14.512Z,12.37
2018-07-05T03:09:48.108Z,11.57
2018-07-05T03:12:27.658Z,11.27
2018-07-05T03:15:07.389Z,10.33
2018-07-05T03:17:46.944Z,9.80
2018-07-05T03:20:26.652Z,11.63
2018-07-05T03:23:06.355Z,10.07
2018-07-05T03:25:45.935Z,10.40
2018-07-05T03:28:25.580Z,7.30
2018-07-05T03:31:05.090Z,7.73
2018-07-05T03:33:44.688Z,7.40
2018-07-05T03:36:24.089Z,7.90
2018-07-05T03:39:03.917Z,7.07
2018-07-05T03:41:43.702Z,7.67
2018-07-05T03:44:23.367Z,7.97
2018-07-05T03:47:02.975Z,7.93
2018-07-05T03:49:42.463Z,8.67
2018-07-05T03:52:22.175Z,8.17
2018-07-05T03:55:01.753Z,9.47
2018-07-05T03:57:35.439Z,8.77
2018-07-05T04:00:15.080Z,8.23
2018-07-05T04:02:54.752Z,7.87
2018-07-05T04:05:34.413Z,9.30
2018-07-05T04:08:14.078Z,8.17
2018-07-05T04:10:53.534Z,9.00
2018-07-05T04:13:33.164Z,8.73
2018-07-05T04:16:12.688Z,7.60
2018-07-05T04:18:52.245Z,7.57
2018-07-05T04:21:31.806Z,6.97
2018-07-05T04:24:11.353Z,7.17
2018-07-05T04:26:50.888Z,7.70
2018-07-05T04:29:30.308Z,7.50
2018-07-05T04:32:09.951Z,7.80
2018-07-05T04:34:49.508Z,7.03
2018-07-05T04:37:29.059Z,6.87
2018-07-05T04:40:02.740Z,6.30
2018-07-05T04:42:42.380Z,6.60
2018-07-05T04:45:22.053Z,6.77
2018-07-05T04:47:55.499Z,6.93
2018-07-05T04:50:35.036Z,6.07
2018-07-05T04:53:14.636Z,6.40
2018-07-05T04:55:48.302Z,6.87
2018-07-05T04:58:27.897Z,5.90
2018-07-05T05:01:07.541Z,6.60
2018-07-05T05:03:47.219Z,7.10
2018-07-05T05:06:26.776Z,6.37
2018-07-05T05:09:06.368Z,7.00
2018-07-05T05:11:45.888Z,6.17
2018-07-05T05:14:19.489Z,6.20
2018-07-05T05:16:52.937Z,6.60
2018-07-05T05:19:32.708Z,6.20
2018-07-05T05:22:12.260Z,6.37
2018-07-05T05:24:51.811Z,7.53
2018-07-05T05:27:25.511Z,7.50
2018-07-05T05:30:05.211Z,7.40
2018-07-05T05:32:44.792Z,7.23
2018-07-05T05:35:24.556Z,7.80
2018-07-05T05:37:58.281Z,8.40
2018-07-05T05:40:37.888Z,7.70
2018-07-05T05:43:17.460Z,7.77
2018-07-05T05:45:57.186Z,7.87
2018-07-05T05:48:31.636Z,7.73
2018-07-05T05:51:11.180Z,8.43
2018-07-05T05:53:50.804Z,7.73
2018-07-05T05:56:24.464Z,7.60
2018-07-05T05:59:04.129Z,8.37
2018-07-05T06:01:43.688Z,8.10
2018-07-05T06:04:23.105Z,7.57
2018-07-05T06:07:03.029Z,7.60
2018-07-05T06:09:42.621Z,7.77
2018-07-05T06:12:22.238Z,7.10
2018-07-05T06:15:01.805Z,6.87
2018-07-05T06:17:41.334Z,7.27
2018-07-05T06:20:15.015Z,7.40
2018-07-05T06:22:54.593Z,7.43
2018-07-05T06:25:34.651Z,7.27
2018-07-05T06:28:08.192Z,7.07
2018-07-05T06:30:47.836Z,7.20
2018-07-05T06:33:27.402Z,6.60
2018-07-05T06:36:07.057Z,7.47
2018-07-05T06:38:40.675Z,13.07
2018-07-05T06:41:20.406Z,9.77
2018-07-05T06:43:53.919Z,9.33
2018-07-05T06:46:33.455Z,8.80
2018-07-05T06:49:13.051Z,8.27
2018-07-05T06:51:52.693Z,9.67
2018-07-05T06:54:32.134Z,9.67
2018-07-05T06:57:11.788Z,12.47
2018-07-05T06:59:51.338Z,11.93
2018-07-05T07:02:30.859Z,13.67
2018-07-05T07:05:10.424Z,10.97
2018-07-05T07:07:49.992Z,10.87
2018-07-05T07:10:29.537Z,9.90
2018-07-05T07:13:09.953Z,13.27
2018-07-05T07:15:49.491Z,14.43
2018-07-05T07:18:29.031Z,15.33
2018-07-05T07:21:08.576Z,10.03
2018-07-05T07:23:48.155Z,11.03
2018-07-05T07:26:27.676Z,12.30
2018-07-05T07:29:01.349Z,14.17
2018-07-05T07:31:41.074Z,15.50
2018-07-05T07:34:14.616Z,16.60
2018-07-05T07:36:54.106Z,23.07
2018-07-05T07:39:33.570Z,15.30
2018-07-05T07:42:00.761Z,11.63
2018-07-05T07:44:28.204Z,12.00
2018-07-05T07:46:55.672Z,12.07
2018-07-05T07:49:23.148Z,12.40
2018-07-05T07:51:50.370Z,12.27
2018-07-05T07:54:17.552Z,12.33
2018-07-05T07:56:44.802Z,13.17
2018-07-05T07:59:11.966Z,11.40
2018-07-05T08:01:39.182Z,11.70
2018-07-05T08:04:06.656Z,12.17
2018-07-05T08:06:33.896Z,11.30
2018-07-05T08:09:01.080Z,11.53
2018-07-05T08:11:28.320Z,10.57
2018-07-05T08:13:55.553Z,11.10
2018-07-05T08:16:22.730Z,10.53
2018-07-05T08:18:49.987Z,8.77
2018-07-05T08:21:17.217Z,8.20
2018-07-05T08:23:44.502Z,8.80
2018-07-05T08:26:11.738Z,8.87
2018-07-05T08:28:38.978Z,9.23
2018-07-05T08:31:06.213Z,8.90
2018-07-05T08:33:33.465Z,9.47
2018-07-05T08:36:00.957Z,8.33
2018-07-05T08:38:28.219Z,8.07
2018-07-05T08:40:55.446Z,7.50
2018-07-05T08:43:22.661Z,7.77
2018-07-05T08:45:49.838Z,7.43
2018-07-05T08:48:17.307Z,7.33
2018-07-05T08:50:44.492Z,6.70
2018-07-05T08:53:11.720Z,6.90
2018-07-05T08:55:38.928Z,5.67
2018-07-05T08:58:06.116Z,5.83
2018-07-05T09:00:33.325Z,6.50
2018-07-05T09:03:00.532Z,6.07
2018-07-05T09:05:27.777Z,5.03
2018-07-05T09:07:55.001Z,5.70
2018-07-05T09:10:22.460Z,5.33
2018-07-05T09:12:49.946Z,5.40
2018-07-05T09:15:17.157Z,4.70
2018-07-05T09:17:44.363Z,4.53
2018-07-05T09:20:11.564Z,5.10
2018-07-05T09:22:39.011Z,4.40
2018-07-05T09:25:06.206Z,4.43
2018-07-05T09:27:33.436Z,4.60
2018-07-05T09:30:00.911Z,4.53
2018-07-05T09:32:28.136Z,4.63
2018-07-05T09:34:55.623Z,4.80
2018-07-05T09:37:22.872Z,5.03
2018-07-05T09:39:50.024Z,5.20
2018-07-05T09:42:17.257Z,5.27
2018-07-05T09:44:44.741Z,5.40
2018-07-05T09:47:11.966Z,5.23
2018-07-05T09:49:39.481Z,5.00
2018-07-05T09:52:06.680Z,4.90
2018-07-05T09:54:33.954Z,5.20
2018-07-05T09:57:01.200Z,5.00
2018-07-05T09:59:28.413Z,5.10
2018-07-05T10:01:55.606Z,5.17
2018-07-05T10:04:22.809Z,5.13
2018-07-05T10:06:49.992Z,5.10
2018-07-05T10:09:17.170Z,4.83
2018-07-05T10:11:44.390Z,4.30
2018-07-05T10:14:11.557Z,4.70
2018-07-05T10:16:38.829Z,3.70
2018-07-05T10:19:06.130Z,3.67
2018-07-05T10:21:33.423Z,3.60
2018-07-05T10:24:00.685Z,3.80
2018-07-05T10:26:27.933Z,3.93
2018-07-05T10:29:07.683Z,4.83
2018-07-05T10:31:47.488Z,3.67
2018-07-05T10:34:15.000Z,4.17
2018-07-05T10:36:42.242Z,3.67
2018-07-05T10:39:09.549Z,4.07
2018-07-05T10:41:49.197Z,3.80
2018-07-05T10:44:22.621Z,3.63
2018-07-05T10:47:02.354Z,3.47
2018-07-05T10:49:41.963Z,3.17
2018-07-05T10:52:21.661Z,4.17
2018-07-05T10:55:01.249Z,3.80
2018-07-05T10:57:40.825Z,3.80
2018-07-05T11:00:20.719Z,3.80
2018-07-05T11:03:00.297Z,5.23
2018-07-05T11:05:33.891Z,4.30
2018-07-05T11:08:13.467Z,4.47
2018-07-05T11:10:53.233Z,3.97
2018-07-05T11:13:33.025Z,4.60
2018-07-05T11:16:12.756Z,5.77
2018-07-05T11:18:52.400Z,4.90
2018-07-05T11:21:32.006Z,5.30
2018-07-05T11:24:11.604Z,5.13
2018-07-05T11:26:51.468Z,5.73
2018-07-05T11:29:31.202Z,5.60
2018-07-05T11:32:04.733Z,6.07
2018-07-05T11:34:44.374Z,6.90
2018-07-05T11:37:23.909Z,6.50
2018-07-05T11:40:03.558Z,7.20
2018-07-05T11:42:43.188Z,7.23
2018-07-05T11:45:22.925Z,7.33
2018-07-05T11:47:56.603Z,7.67
2018-07-05T11:50:36.111Z,7.67
2018-07-05T11:53:15.705Z,8.57
2018-07-05T11:55:49.461Z,8.60
2018-07-05T11:58:29.126Z,9.07
2018-07-05T12:01:08.912Z,9.03
2018-07-05T12:03:48.468Z,10.07
2018-07-05T12:06:28.077Z,9.73
2018-07-05T12:09:08.661Z,10.50
2018-07-05T12:11:48.390Z,10.40
2018-07-05T12:14:21.997Z,10.37
2018-07-05T12:17:01.716Z,10.70
2018-07-05T12:19:41.377Z,11.10
2018-07-05T12:22:15.080Z,10.63
2018-07-05T12:24:48.687Z,11.20
2018-07-05T12:27:28.361Z,11.13
2018-07-05T12:30:07.972Z,12.60
2018-07-05T12:32:47.546Z,12.97
2018-07-05T12:35:27.238Z,12.60
2018-07-05T12:38:06.938Z,12.80
2018-07-05T12:40:46.574Z,14.10
2018-07-05T12:43:26.326Z,13.23
2018-07-05T12:46:05.976Z,12.13
2018-07-05T12:48:45.633Z,10.83
2018-07-05T12:51:25.293Z,11.53
2018-07-05T12:54:04.891Z,11.43
2018-07-05T12:56:44.592Z,11.20
2018-07-05T12:59:24.458Z,10.90
2018-07-05T13:02:04.239Z,11.43
2018-07-05T13:04:43.980Z,11.13
2018-07-05T13:07:23.578Z,11.87
2018-07-05T13:10:03.417Z,10.73
2018-07-05T13:12:42.932Z,9.33
2018-07-05T13:15:22.431Z,9.47
2018-07-05T13:18:02.159Z,10.20
2018-07-05T13:20:41.856Z,10.70
2018-07-05T13:23:21.655Z,10.33
2018-07-05T13:26:01.297Z,10.50
2018-07-05T13:28:40.813Z,10.67
2018-07-05T13:31:20.799Z,10.23
2018-07-05T13:34:00.356Z,11.03
2018-07-05T13:36:39.969Z,10.23
2018-07-05T13:39:13.601Z,9.40
2018-07-05T13:41:53.303Z,9.07
2018-07-05T13:44:32.834Z,8.77
2018-07-05T13:47:12.586Z,8.57
2018-07-05T13:49:52.105Z,8.20
2018-07-05T13:52:31.881Z,7.33
2018-07-05T13:55:11.408Z,5.93
2018-07-05T13:57:50.872Z,6.17
2018-07-05T14:00:30.817Z,5.70
2018-07-05T14:03:04.681Z,6.70
2018-07-05T14:05:44.461Z,6.57
2018-07-05T14:08:24.111Z,5.80
2018-07-05T14:10:57.620Z,6.50
2018-07-05T14:13:37.133Z,5.80
2018-07-05T14:16:16.799Z,5.73
2018-07-05T14:18:56.492Z,5.17
2018-07-05T14:21:36.373Z,5.30
2018-07-05T14:24:15.981Z,4.87
2018-07-05T14:26:55.715Z,5.00
2018-07-05T14:29:35.465Z,5.07
2018-07-05T14:32:15.245Z,4.97
2018-07-05T14:34:54.994Z,4.90
2018-07-05T14:37:34.797Z,4.77
2018-07-05T14:40:14.485Z,5.03
2018-07-05T14:42:54.046Z,5.03
2018-07-05T14:45:33.681Z,5.30
2018-07-05T14:48:13.350Z,5.27
2018-07-05T14:50:52.867Z,5.30
2018-07-05T14:53:26.695Z,4.47
2018-07-05T14:56:06.277Z,4.83
2018-07-05T14:58:46.109Z,4.70
2018-07-05T15:01:19.668Z,4.30
2018-07-05T15:03:59.208Z,4.27
2018-07-05T15:06:39.041Z,4.00
2018-07-05T15:09:18.719Z,4.20
2018-07-05T15:11:58.241Z,4.37
2018-07-05T15:14:38.202Z,4.40
2018-07-05T15:17:17.867Z,4.10
2018-07-05T15:19:57.470Z,4.07
2018-07-05T15:22:30.977Z,3.50
2018-07-05T15:25:10.657Z,3.67
2018-07-05T15:27:50.485Z,3.30
2018-07-05T15:30:29.952Z,3.23
2018-07-05T15:33:09.477Z,3.23
2018-07-05T15:35:49.082Z,3.30
2018-07-05T15:38:22.683Z,3.37
2018-07-05T15:40:56.334Z,3.10
2018-07-05T15:43:35.970Z,2.87
2018-07-05T15:46:15.556Z,3.40
2018-07-05T15:48:55.203Z,3.20
2018-07-05T15:51:34.882Z,3.20
2018-07-05T15:54:14.461Z,3.50
2018-07-05T15:56:54.234Z,3.40
2018-07-05T15:59:34.081Z,3.87
2018-07-05T16:02:07.656Z,3.03
2018-07-05T16:04:47.157Z,3.43
2018-07-05T16:07:26.859Z,3.10
2018-07-05T16:10:06.591Z,3.17
2018-07-05T16:12:40.116Z,3.00
2018-07-05T16:15:19.736Z,3.23
2018-07-05T16:17:59.391Z,3.10
2018-07-05T16:20:38.988Z,3.33
2018-07-05T16:23:18.431Z,3.20
2018-07-05T16:25:58.032Z,6.27
2018-07-05T16:28:31.727Z,3.97
2018-07-05T16:31:05.352Z,3.73
2018-07-05T16:33:44.876Z,3.43
2018-07-05T16:36:24.557Z,3.20
2018-07-05T16:39:05.024Z,3.80
2018-07-05T16:41:44.736Z,3.40
2018-07-05T16:44:24.661Z,3.60
2018-07-05T16:47:04.370Z,3.40
2018-07-05T16:49:44.205Z,4.07
2018-07-05T16:52:23.873Z,4.13
2018-07-05T16:55:03.411Z,3.00
2018-07-05T16:57:43.144Z,3.43
2018-07-05T17:00:22.833Z,3.60
2018-07-05T17:03:02.650Z,3.40
2018-07-05T17:05:42.237Z,3.33
2018-07-05T17:08:15.945Z,3.10
2018-07-05T17:10:55.725Z,3.17
2018-07-05T17:13:35.408Z,3.50
2018-07-05T17:16:14.939Z,3.43
2018-07-05T17:18:54.564Z,3.43
2018-07-05T17:21:34.384Z,3.07
2018-07-05T17:24:14.190Z,3.17
2018-07-05T17:26:53.870Z,3.13
2018-07-05T17:29:33.550Z,2.80
2018-07-05T17:32:13.183Z,2.90
2018-07-05T17:34:53.054Z,4.10
2018-07-05T17:37:32.885Z,3.73
2018-07-05T17:40:12.581Z,3.90
2018-07-05T17:42:52.253Z,3.10
2018-07-05T17:45:31.980Z,2.47
2018-07-05T17:48:11.501Z,2.70
2018-07-05T17:50:45.194Z,2.77
2018-07-05T17:53:25.472Z,2.60
2018-07-05T17:56:05.229Z,2.70
2018-07-05T17:58:45.132Z,2.70
2018-07-05T18:01:24.617Z,2.67
2018-07-05T18:04:04.237Z,2.40
2018-07-05T18:06:43.777Z,3.20
2018-07-05T18:09:23.437Z,2.73
2018-07-05T18:12:03.103Z,2.90
2018-07-05T18:14:42.697Z,3.03
2018-07-05T18:17:22.343Z,2.77
2018-07-05T18:19:55.890Z,3.10
2018-07-05T18:22:35.596Z,3.43
2018-07-05T18:25:09.163Z,3.10
2018-07-05T18:27:49.036Z,3.10
2018-07-05T18:30:28.805Z,2.80
2018-07-05T18:33:08.477Z,2.90
2018-07-05T18:35:48.248Z,3.10
2018-07-05T18:38:27.935Z,3.30
2018-07-05T18:41:07.710Z,3.30
2018-07-05T18:43:47.465Z,3.20
2018-07-05T18:46:27.105Z,3.47
2018-07-05T18:49:06.880Z,3.20
2018-07-05T18:51:46.642Z,3.20
2018-07-05T18:54:20.243Z,3.60
2018-07-05T18:56:59.764Z,3.40
2018-07-05T18:59:39.496Z,3.43
2018-07-05T19:02:19.249Z,3.43
2018-07-05T19:04:58.932Z,3.17
2018-07-05T19:07:38.625Z,3.10
2018-07-05T19:10:18.433Z,3.27
2018-07-05T19:12:57.912Z,3.63
2018-07-05T19:15:37.522Z,5.17
2018-07-05T19:18:17.175Z,3.67
2018-07-05T19:20:56.824Z,4.30
2018-07-05T19:23:36.488Z,3.73
2018-07-05T19:26:16.281Z,3.73
2018-07-05T19:28:55.909Z,3.83
2018-07-05T19:31:29.531Z,3.70
2018-07-05T19:34:03.062Z,4.67
2018-07-05T19:36:42.552Z,4.47
2018-07-05T19:39:22.220Z,4.23
2018-07-05T19:42:01.853Z,7.63
2018-07-05T19:44:41.517Z,4.37
2018-07-05T19:47:21.022Z,4.60
2018-07-05T19:50:00.637Z,3.80
2018-07-05T19:52:40.221Z,3.40
2018-07-05T19:55:19.730Z,3.63
2018-07-05T19:57:59.321Z,4.70
2018-07-05T20:00:39.271Z,3.70
2018-07-05T20:03:18.532Z,4.60
2018-07-05T20:05:58.150Z,3.47
2018-07-05T20:08:37.694Z,3.53
2018-07-05T20:11:17.309Z,3.73
2018-07-05T20:13:50.966Z,3.33
2018-07-05T20:16:30.696Z,3.17
2018-07-05T20:19:10.690Z,3.50
2018-07-05T20:21:50.201Z,4.67
2018-07-05T20:24:29.754Z,4.70
2018-07-05T20:27:09.571Z,3.13
2018-07-05T20:29:49.049Z,3.37
2018-07-05T20:32:28.864Z,3.60
2018-07-05T20:35:08.533Z,3.30
2018-07-05T20:37:48.118Z,3.47
2018-07-05T20:40:27.796Z,3.23
2018-07-05T20:43:07.288Z,3.50
2018-07-05T20:45:46.840Z,3.97
2018-07-05T20:48:26.417Z,3.60
2018-07-05T20:51:06.081Z,3.10
2018-07-05T20:53:45.656Z,3.37
2018-07-05T20:56:25.320Z,3.20
2018-07-05T20:59:05.125Z,3.33
2018-07-05T21:01:44.823Z,4.83
2018-07-05T21:04:24.377Z,3.90
2018-07-05T21:07:03.916Z,3.60
2018-07-05T21:09:43.485Z,3.43
2018-07-05T21:12:23.180Z,5.10
2018-07-05T21:15:02.706Z,4.43
2018-07-05T21:17:42.402Z,3.50
2018-07-05T21:20:21.876Z,4.63
2018-07-05T21:22:55.531Z,6.20
2018-07-05T21:25:35.202Z,6.97
2018-07-05T21:28:14.820Z,3.70
2018-07-05T21:30:54.453Z,5.23
2018-07-05T21:33:34.017Z,4.60
2018-07-05T21:36:13.649Z,6.00
2018-07-05T21:38:53.400Z,4.60
2018-07-05T21:41:33.039Z,4.10
2018-07-05T21:44:12.565Z,8.37
2018-07-05T21:46:52.197Z,4.50
2018-07-05T21:49:31.957Z,3.93
2018-07-05T21:52:11.685Z,4.50
2018-07-05T21:54:51.297Z,4.33
2018-07-05T21:57:30.889Z,4.23
2018-07-05T22:00:10.502Z,4.90
2018-07-05T22:02:50.261Z,5.47
2018-07-05T22:05:29.968Z,5.63
2018-07-05T22:08:09.561Z,5.00
2018-07-05T22:10:49.296Z,5.53
2018-07-05T22:13:28.860Z,4.20
2018-07-05T22:16:08.420Z,5.27
2018-07-05T22:18:53.717Z,6.33
2018-07-05T22:21:37.517Z,9.67
2018-07-05T22:24:22.587Z,8.53
2018-07-05T22:27:02.235Z,8.67
2018-07-05T22:29:47.552Z,5.63
2018-07-05T22:32:27.221Z,5.53
2018-07-05T22:35:07.000Z,5.70
2018-07-05T22:37:46.643Z,6.10
2018-07-05T22:40:26.289Z,6.20
2018-07-05T22:43:05.823Z,8.17
2018-07-05T22:45:45.399Z,5.93
2018-07-05T22:48:25.149Z,6.30
2018-07-05T22:51:04.608Z,9.43
2018-07-05T22:53:44.136Z,6.77
2018-07-05T22:56:23.737Z,6.90
2018-07-05T22:59:03.328Z,8.13
2018-07-05T23:01:42.905Z,7.40
2018-07-05T23:04:22.492Z,13.00
2018-07-05T23:07:01.981Z,8.07
2018-07-05T23:09:41.629Z,15.90
2018-07-05T23:12:21.241Z,9.47
2018-07-05T23:15:00.804Z,7.23
2018-07-05T23:17:40.352Z,8.70
2018-07-05T23:20:19.853Z,8.40
2018-07-05T23:22:59.626Z,10.70
2018-07-05T23:25:39.180Z,9.70
2018-07-05T23:28:18.893Z,9.23
2018-07-05T23:30:58.569Z,8.77
2018-07-05T23:33:38.297Z,9.33
2018-07-05T23:36:17.840Z,11.00
2018-07-05T23:38:57.381Z,10.37
2018-07-05T23:41:37.049Z,10.73
2018-07-05T23:44:16.668Z,12.67
2018-07-05T23:46:56.432Z,12.17
2018-07-05T23:49:36.154Z,13.60
2018-07-05T23:52:15.804Z,13.77
2018-07-05T23:54:55.444Z,15.33
2018-07-05T23:57:34.981Z,15.83
